sensor_id;sensor_type;location;lat;lon;timestamp;pressure;altitude;pressure_sealevel;temperature;humidity
34586;BME280;20816;50.950;11.108;2023-01-25T00:02:07;100397.31;;;0.09;100.00
34586;BME280;20816;50.950;11.108;2023-01-25T00:04:34;100394.63;;;0.08;100.00
34586;BME280;20816;50.950;11.108;2023-01-25T00:07:00;100396.41;;;0.09;100.00
34586;BME280;20816;50.950;11.108;2023-01-25T00:09:27;100398.69;;;0.03;100.00
34586;BME280;20816;50.950;11.108;2023-01-25T00:11:53;100391.75;;;0.02;100.00
34586;BME280;20816;50.950;11.108;2023-01-25T00:14:23;100397.00;;;0.03;100.00
34586;BME280;20816;50.950;11.108;2023-01-25T00:16:50;100391.69;;;0.00;100.00
34586;BME280;20816;50.950;11.108;2023-01-25T00:19:17;100388.88;;;0.13;100.00
34586;BME280;20816;50.950;11.108;2023-01-25T00:21:44;100382.06;;;0.15;100.00
34586;BME280;20816;50.950;11.108;2023-01-25T00:24:10;100388.72;;;0.10;100.00
34586;BME280;20816;50.950;11.108;2023-01-25T00:26:40;100387.97;;;0.13;100.00
34586;BME280;20816;50.950;11.108;2023-01-25T00:29:12;100384.97;;;0.04;100.00
34586;BME280;20816;50.950;11.108;2023-01-25T00:31:48;100379.84;;;0.05;100.00
34586;BME280;20816;50.950;11.108;2023-01-25T00:34:43;100377.19;;;0.04;100.00
34586;BME280;20816;50.950;11.108;2023-01-25T00:37:35;100370.03;;;-0.02;100.00
34586;BME280;20816;50.950;11.108;2023-01-25T00:40:03;100371.09;;;0.02;100.00
34586;BME280;20816;50.950;11.108;2023-01-25T00:42:30;100370.41;;;0.06;100.00
34586;BME280;20816;50.950;11.108;2023-01-25T00:44:57;100373.34;;;0.13;100.00
34586;BME280;20816;50.950;11.108;2023-01-25T00:47:24;100374.91;;;0.10;100.00
34586;BME280;20816;50.950;11.108;2023-01-25T00:49:50;100370.41;;;0.06;100.00
34586;BME280;20816;50.950;11.108;2023-01-25T00:52:17;100364.84;;;-0.02;100.00
34586;BME280;20816;50.950;11.108;2023-01-25T00:54:44;100362.00;;;-0.08;100.00
34586;BME280;20816;50.950;11.108;2023-01-25T00:57:10;100361.38;;;-0.03;100.00
34586;BME280;20816;50.950;11.108;2023-01-25T00:59:37;100363.47;;;-0.13;100.00
34586;BME280;20816;50.950;11.108;2023-01-25T01:02:04;100370.03;;;-0.02;100.00
34586;BME280;20816;50.950;11.108;2023-01-25T01:04:30;100366.50;;;-0.04;100.00
34586;BME280;20816;50.950;11.108;2023-01-25T01:06:57;100356.81;;;-0.08;100.00
34586;BME280;20816;50.950;11.108;2023-01-25T01:09:24;100362.78;;;-0.09;100.00
34586;BME280;20816;50.950;11.108;2023-01-25T01:11:51;100375.50;;;-0.14;100.00
34586;BME280;20816;50.950;11.108;2023-01-25T01:14:19;100371.97;;;-0.16;100.00
34586;BME280;20816;50.950;11.108;2023-01-25T01:16:46;100373.34;;;-0.05;100.00
34586;BME280;20816;50.950;11.108;2023-01-25T01:19:13;100375.13;;;-0.04;100.00
34586;BME280;20816;50.950;11.108;2023-01-25T01:21:40;100374.09;;;-0.07;100.00
34586;BME280;20816;50.950;11.108;2023-01-25T01:24:08;100367.31;;;-0.05;100.00
34586;BME280;20816;50.950;11.108;2023-01-25T01:26:35;100371.72;;;-0.03;100.00
34586;BME280;20816;50.950;11.108;2023-01-25T01:29:02;100374.75;;;-0.11;100.00
34586;BME280;20816;50.950;11.108;2023-01-25T01:31:28;100375.44;;;-0.15;100.00
34586;BME280;20816;50.950;11.108;2023-01-25T01:33:56;100378.16;;;-0.12;100.00
34586;BME280;20816;50.950;11.108;2023-01-25T01:36:25;100370.72;;;-0.06;100.00
34586;BME280;20816;50.950;11.108;2023-01-25T01:38:53;100366.69;;;-0.17;100.00
34586;BME280;20816;50.950;11.108;2023-01-25T01:41:20;100374.38;;;-0.19;100.00
34586;BME280;20816;50.950;11.108;2023-01-25T01:43:47;100372.47;;;-0.23;100.00
34586;BME280;20816;50.950;11.108;2023-01-25T01:46:16;100367.81;;;-0.12;100.00
34586;BME280;20816;50.950;11.108;2023-01-25T01:48:51;100375.25;;;-0.18;100.00
34586;BME280;20816;50.950;11.108;2023-01-25T01:54:04;100366.75;;;-0.34;100.00
34586;BME280;20816;50.950;11.108;2023-01-25T01:56:38;100367.06;;;-0.28;100.00
34586;BME280;20816;50.950;11.108;2023-01-25T01:59:07;100370.63;;;-0.42;100.00
34586;BME280;20816;50.950;11.108;2023-01-25T02:01:35;100362.25;;;-0.38;100.00
34586;BME280;20816;50.950;11.108;2023-01-25T02:04:04;100361.75;;;-0.31;100.00
34586;BME280;20816;50.950;11.108;2023-01-25T02:06:54;100359.16;;;-0.31;100.00
34586;BME280;20816;50.950;11.108;2023-01-25T02:09:24;100358.28;;;-0.31;100.00
34586;BME280;20816;50.950;11.108;2023-01-25T02:11:53;100348.38;;;-0.22;100.00
34586;BME280;20816;50.950;11.108;2023-01-25T02:14:22;100355.44;;;-0.36;100.00
34586;BME280;20816;50.950;11.108;2023-01-25T02:16:49;100350.34;;;-0.34;100.00
34586;BME280;20816;50.950;11.108;2023-01-25T02:19:47;100342.78;;;-0.31;100.00
34586;BME280;20816;50.950;11.108;2023-01-25T02:22:21;100325.06;;;-0.23;100.00
34586;BME280;20816;50.950;11.108;2023-01-25T02:25:08;100324.91;;;-0.26;100.00
34586;BME280;20816;50.950;11.108;2023-01-25T02:27:41;100335.84;;;-0.32;100.00
34586;BME280;20816;50.950;11.108;2023-01-25T02:30:08;100326.22;;;-0.35;100.00
34586;BME280;20816;50.950;11.108;2023-01-25T02:32:35;100320.41;;;-0.31;100.00
34586;BME280;20816;50.950;11.108;2023-01-25T02:35:02;100321.66;;;-0.40;100.00
34586;BME280;20816;50.950;11.108;2023-01-25T02:37:29;100317.38;;;-0.40;100.00
34586;BME280;20816;50.950;11.108;2023-01-25T02:39:55;100311.31;;;-0.40;100.00
34586;BME280;20816;50.950;11.108;2023-01-25T02:42:22;100314.03;;;-0.37;100.00
34586;BME280;20816;50.950;11.108;2023-01-25T02:44:49;100311.47;;;-0.37;100.00
34586;BME280;20816;50.950;11.108;2023-01-25T02:47:17;100303.34;;;-0.45;100.00
34586;BME280;20816;50.950;11.108;2023-01-25T02:49:43;100303.13;;;-0.32;100.00
34586;BME280;20816;50.950;11.108;2023-01-25T02:52:10;100297.97;;;-0.32;100.00
34586;BME280;20816;50.950;11.108;2023-01-25T02:54:37;100293.75;;;-0.30;100.00
34586;BME280;20816;50.950;11.108;2023-01-25T02:57:03;100291.81;;;-0.34;100.00
34586;BME280;20816;50.950;11.108;2023-01-25T02:59:30;100286.50;;;-0.37;100.00
34586;BME280;20816;50.950;11.108;2023-01-25T03:01:56;100278.13;;;-0.33;100.00
34586;BME280;20816;50.950;11.108;2023-01-25T03:04:23;100280.53;;;-0.36;100.00
34586;BME280;20816;50.950;11.108;2023-01-25T03:06:50;100280.31;;;-0.40;100.00
34586;BME280;20816;50.950;11.108;2023-01-25T03:09:17;100279.88;;;-0.32;100.00
34586;BME280;20816;50.950;11.108;2023-01-25T03:11:43;100261.81;;;-0.32;100.00
34586;BME280;20816;50.950;11.108;2023-01-25T03:14:10;100264.28;;;-0.33;100.00
34586;BME280;20816;50.950;11.108;2023-01-25T03:16:37;100257.53;;;-0.31;100.00
34586;BME280;20816;50.950;11.108;2023-01-25T03:19:04;100261.00;;;-0.31;100.00
34586;BME280;20816;50.950;11.108;2023-01-25T03:21:30;100261.00;;;-0.31;100.00
34586;BME280;20816;50.950;11.108;2023-01-25T03:23:59;100255.59;;;-0.35;100.00
34586;BME280;20816;50.950;11.108;2023-01-25T03:26:27;100251.75;;;-0.25;100.00
34586;BME280;20816;50.950;11.108;2023-01-25T03:28:55;100249.03;;;-0.29;100.00
34586;BME280;20816;50.950;11.108;2023-01-25T03:31:22;100242.84;;;-0.32;100.00
34586;BME280;20816;50.950;11.108;2023-01-25T03:33:48;100235.28;;;-0.28;100.00
34586;BME280;20816;50.950;11.108;2023-01-25T03:36:15;100236.41;;;-0.22;100.00
34586;BME280;20816;50.950;11.108;2023-01-25T03:38:42;100240.75;;;-0.21;100.00
34586;BME280;20816;50.950;11.108;2023-01-25T03:41:09;100237.00;;;-0.28;100.00
34586;BME280;20816;50.950;11.108;2023-01-25T03:43:37;100242.03;;;-0.31;100.00
34586;BME280;20816;50.950;11.108;2023-01-25T03:46:05;100235.28;;;-0.28;100.00
34586;BME280;20816;50.950;11.108;2023-01-25T03:48:31;100231.63;;;-0.33;100.00
34586;BME280;20816;50.950;11.108;2023-01-25T03:50:59;100233.38;;;-0.32;100.00
34586;BME280;20816;50.950;11.108;2023-01-25T03:53:28;100233.91;;;-0.39;100.00
34586;BME280;20816;50.950;11.108;2023-01-25T03:55:58;100227.03;;;-0.38;100.00
34586;BME280;20816;50.950;11.108;2023-01-25T03:58:25;100237.19;;;-0.41;100.00
34586;BME280;20816;50.950;11.108;2023-01-25T04:00:54;100233.38;;;-0.32;100.00
34586;BME280;20816;50.950;11.108;2023-01-25T04:03:22;100232.19;;;-0.38;100.00
34586;BME280;20816;50.950;11.108;2023-01-25T04:05:48;100232.13;;;-0.40;100.00
34586;BME280;20816;50.950;11.108;2023-01-25T04:08:16;100229.56;;;-0.40;100.00
34586;BME280;20816;50.950;11.108;2023-01-25T04:10:43;100229.25;;;-0.46;100.00
34586;BME280;20816;50.950;11.108;2023-01-25T04:13:10;100224.38;;;-0.40;100.00
34586;BME280;20816;50.950;11.108;2023-01-25T04:15:36;100223.19;;;-0.29;100.00
34586;BME280;20816;50.950;11.108;2023-01-25T04:18:03;100219.66;;;-0.31;100.00
34586;BME280;20816;50.950;11.108;2023-01-25T04:20:30;100217.72;;;-0.35;100.00
34586;BME280;20816;50.950;11.108;2023-01-25T04:22:56;100213.59;;;-0.31;100.00
34586;BME280;20816;50.950;11.108;2023-01-25T04:25:23;100217.88;;;-0.32;100.00
34586;BME280;20816;50.950;11.108;2023-01-25T04:27:50;100206.13;;;-0.25;100.00
34586;BME280;20816;50.950;11.108;2023-01-25T04:30:17;100209.44;;;-0.28;100.00
34586;BME280;20816;50.950;11.108;2023-01-25T04:32:43;100212.09;;;-0.26;100.00
34586;BME280;20816;50.950;11.108;2023-01-25T04:35:10;100199.41;;;-0.21;100.00
34586;BME280;20816;50.950;11.108;2023-01-25T04:37:37;100192.78;;;-0.16;100.00
34586;BME280;20816;50.950;11.108;2023-01-25T04:40:04;100200.44;;;-0.18;100.00
34586;BME280;20816;50.950;11.108;2023-01-25T04:42:31;100200.44;;;-0.36;100.00
34586;BME280;20816;50.950;11.108;2023-01-25T04:44:58;100202.16;;;-0.36;100.00
34586;BME280;20816;50.950;11.108;2023-01-25T04:47:25;100193.06;;;-0.28;100.00
34586;BME280;20816;50.950;11.108;2023-01-25T04:49:51;100190.19;;;-0.34;100.00
34586;BME280;20816;50.950;11.108;2023-01-25T04:52:18;100190.53;;;-0.26;100.00
34586;BME280;20816;50.950;11.108;2023-01-25T04:54:45;100185.13;;;-0.33;100.00
34586;BME280;20816;50.950;11.108;2023-01-25T04:57:11;100190.00;;;-0.39;100.00
34586;BME280;20816;50.950;11.108;2023-01-25T04:59:38;100185.25;;;-0.30;100.00
34586;BME280;20816;50.950;11.108;2023-01-25T05:02:05;100183.91;;;-0.21;100.00
34586;BME280;20816;50.950;11.108;2023-01-25T05:04:32;100195.09;;;-0.40;100.00
34586;BME280;20816;50.950;11.108;2023-01-25T05:06:58;100191.47;;;-0.44;100.00
34586;BME280;20816;50.950;11.108;2023-01-25T05:09:25;100201.66;;;-0.47;100.00
34586;BME280;20816;50.950;11.108;2023-01-25T05:11:51;100192.78;;;-0.34;100.00
34586;BME280;20816;50.950;11.108;2023-01-25T05:14:18;100189.69;;;-0.45;100.00
34586;BME280;20816;50.950;11.108;2023-01-25T05:16:45;100186.88;;;-0.49;100.00
34586;BME280;20816;50.950;11.108;2023-01-25T05:19:12;100185.47;;;-0.43;100.00
34586;BME280;20816;50.950;11.108;2023-01-25T05:21:39;100180.53;;;-0.38;100.00
34586;BME280;20816;50.950;11.108;2023-01-25T05:24:34;100190.72;;;-0.41;100.00
34586;BME280;20816;50.950;11.108;2023-01-25T05:27:02;100194.22;;;-0.41;100.00
34586;BME280;20816;50.950;11.108;2023-01-25T05:29:34;100183.19;;;-0.37;100.00
34586;BME280;20816;50.950;11.108;2023-01-25T05:32:12;100189.16;;;-0.38;100.00
34586;BME280;20816;50.950;11.108;2023-01-25T05:34:39;100182.06;;;-0.42;100.00
34586;BME280;20816;50.950;11.108;2023-01-25T05:37:07;100190.00;;;-0.39;100.00
34586;BME280;20816;50.950;11.108;2023-01-25T05:39:34;100185.72;;;-0.56;100.00
34586;BME280;20816;50.950;11.108;2023-01-25T05:42:00;100186.47;;;-0.41;100.00
34586;BME280;20816;50.950;11.108;2023-01-25T05:44:27;100177.16;;;-0.55;100.00
34586;BME280;20816;50.950;11.108;2023-01-25T05:46:54;100181.66;;;-0.51;100.00
34586;BME280;20816;50.950;11.108;2023-01-25T05:49:21;100180.56;;;-0.56;100.00
34586;BME280;20816;50.950;11.108;2023-01-25T05:51:47;100173.53;;;-0.59;100.00
34586;BME280;20816;50.950;11.108;2023-01-25T05:54:16;100180.56;;;-0.56;100.00
34586;BME280;20816;50.950;11.108;2023-01-25T05:56:43;100177.16;;;-0.55;100.00
34586;BME280;20816;50.950;11.108;2023-01-25T05:59:12;100178.94;;;-0.54;100.00
34586;BME280;20816;50.950;11.108;2023-01-25T06:01:39;100168.47;;;-0.57;100.00
34586;BME280;20816;50.950;11.108;2023-01-25T06:04:05;100180.25;;;-0.62;100.00
34586;BME280;20816;50.950;11.108;2023-01-25T06:06:32;100171.56;;;-0.64;100.00
34586;BME280;20816;50.950;11.108;2023-01-25T06:09:00;100175.41;;;-0.56;100.00
34586;BME280;20816;50.950;11.108;2023-01-25T06:11:26;100179.81;;;-0.53;100.00
34586;BME280;20816;50.950;11.108;2023-01-25T06:13:53;100171.03;;;-0.57;100.00
34586;BME280;20816;50.950;11.108;2023-01-25T06:16:20;100175.41;;;-0.56;100.00
34586;BME280;20816;50.950;11.108;2023-01-25T06:18:46;100175.41;;;-0.56;100.00
34586;BME280;20816;50.950;11.108;2023-01-25T06:21:13;100169.97;;;-0.43;100.00
34586;BME280;20816;50.950;11.108;2023-01-25T06:23:40;100168.63;;;-0.35;100.00
34586;BME280;20816;50.950;11.108;2023-01-25T06:26:12;100177.28;;;-0.52;100.00
34586;BME280;20816;50.950;11.108;2023-01-25T06:28:39;100178.53;;;-0.44;100.00
34586;BME280;20816;50.950;11.108;2023-01-25T06:31:11;100167.34;;;-0.44;100.00
34586;BME280;20816;50.950;11.108;2023-01-25T06:33:39;100185.09;;;-0.50;100.00
34586;BME280;20816;50.950;11.108;2023-01-25T06:36:11;100187.69;;;-0.50;100.00
34586;BME280;20816;50.950;11.108;2023-01-25T06:38:38;100186.00;;;-0.50;100.00
34586;BME280;20816;50.950;11.108;2023-01-25T06:41:06;100179.50;;;-0.42;100.00
34586;BME280;20816;50.950;11.108;2023-01-25T06:43:37;100186.00;;;-0.50;100.00
34586;BME280;20816;50.950;11.108;2023-01-25T06:46:06;100176.34;;;-0.54;100.00
34586;BME280;20816;50.950;11.108;2023-01-25T06:48:34;100182.47;;;-0.52;100.00
34586;BME280;20816;50.950;11.108;2023-01-25T06:51:03;100181.28;;;-0.59;100.00
34586;BME280;20816;50.950;11.108;2023-01-25T06:53:32;100177.00;;;-0.58;100.00
34586;BME280;20816;50.950;11.108;2023-01-25T06:56:02;100186.00;;;-0.50;100.00
34586;BME280;20816;50.950;11.108;2023-01-25T06:58:29;100185.84;;;-0.53;100.00
34586;BME280;20816;50.950;11.108;2023-01-25T07:01:02;100189.13;;;-0.57;100.00
34586;BME280;20816;50.950;11.108;2023-01-25T07:03:31;100182.25;;;-0.57;100.00
34586;BME280;20816;50.950;11.108;2023-01-25T07:06:03;100175.66;;;-0.50;100.00
34586;BME280;20816;50.950;11.108;2023-01-25T07:08:31;100180.81;;;-0.50;100.00
34586;BME280;20816;50.950;11.108;2023-01-25T07:11:00;100178.78;;;-0.57;100.00
34586;BME280;20816;50.950;11.108;2023-01-25T07:13:29;100171.53;;;-0.46;100.00
34586;BME280;20816;50.950;11.108;2023-01-25T07:16:04;100173.00;;;-0.51;100.00
34586;BME280;20816;50.950;11.108;2023-01-25T07:18:32;100160.97;;;-0.51;100.00
34586;BME280;20816;50.950;11.108;2023-01-25T07:21:08;100165.06;;;-0.56;100.00
34586;BME280;20816;50.950;11.108;2023-01-25T07:23:35;100156.50;;;-0.55;100.00
34586;BME280;20816;50.950;11.108;2023-01-25T07:26:04;100158.41;;;-0.69;100.00
34586;BME280;20816;50.950;11.108;2023-01-25T07:28:31;100157.16;;;-0.77;100.00
34586;BME280;20816;50.950;11.108;2023-01-25T07:31:05;100150.31;;;-0.76;100.00
34586;BME280;20816;50.950;11.108;2023-01-25T07:33:33;100152.25;;;-0.72;100.00
34586;BME280;20816;50.950;11.108;2023-01-25T07:36:01;100149.13;;;-0.65;100.00
34586;BME280;20816;50.950;11.108;2023-01-25T07:38:28;100144.38;;;-0.74;100.00
34586;BME280;20816;50.950;11.108;2023-01-25T07:40:54;100143.59;;;-0.73;100.00
34586;BME280;20816;50.950;11.108;2023-01-25T07:43:22;100154.06;;;-0.70;100.00
34586;BME280;20816;50.950;11.108;2023-01-25T07:45:49;100143.81;;;-0.68;100.00
34586;BME280;20816;50.950;11.108;2023-01-25T07:48:16;100141.28;;;-0.67;100.00
34586;BME280;20816;50.950;11.108;2023-01-25T07:50:43;100134.78;;;-0.59;100.00
34586;BME280;20816;50.950;11.108;2023-01-25T07:53:12;100137.81;;;-0.49;100.00
34586;BME280;20816;50.950;11.108;2023-01-25T07:55:39;100139.50;;;-0.50;100.00
34586;BME280;20816;50.950;11.108;2023-01-25T07:58:05;100138.16;;;-0.42;100.00
34586;BME280;20816;50.950;11.108;2023-01-25T08:00:32;100138.84;;;-0.46;100.00
34586;BME280;20816;50.950;11.108;2023-01-25T08:02:59;100134.88;;;-0.39;100.00
34586;BME280;20816;50.950;11.108;2023-01-25T08:05:25;100138.16;;;-0.42;100.00
34586;BME280;20816;50.950;11.108;2023-01-25T08:07:52;100129.69;;;-0.39;100.00
34586;BME280;20816;50.950;11.108;2023-01-25T08:10:19;100132.00;;;-0.45;100.00
34586;BME280;20816;50.950;11.108;2023-01-25T08:12:45;100128.00;;;-0.39;100.00
34586;BME280;20816;50.950;11.108;2023-01-25T08:15:12;100121.06;;;-0.40;100.00
34586;BME280;20816;50.950;11.108;2023-01-25T08:17:39;100122.59;;;-0.43;100.00
34586;BME280;20816;50.950;11.108;2023-01-25T08:20:06;100121.06;;;-0.40;100.00
34586;BME280;20816;50.950;11.108;2023-01-25T08:22:34;100117.66;;;-0.39;100.00
34586;BME280;20816;50.950;11.108;2023-01-25T08:25:02;100123.34;;;-0.46;100.00
34586;BME280;20816;50.950;11.108;2023-01-25T08:27:28;100116.03;;;-0.37;100.00
34586;BME280;20816;50.950;11.108;2023-01-25T08:29:55;100111.63;;;-0.39;100.00
34586;BME280;20816;50.950;11.108;2023-01-25T08:32:22;100106.81;;;-0.32;100.00
34586;BME280;20816;50.950;11.108;2023-01-25T08:34:48;100105.09;;;-0.31;100.00
34586;BME280;20816;50.950;11.108;2023-01-25T08:37:15;100103.41;;;-0.31;100.00
34586;BME280;20816;50.950;11.108;2023-01-25T08:39:42;100107.88;;;-0.26;100.00
34586;BME280;20816;50.950;11.108;2023-01-25T08:42:09;100108.03;;;-0.23;100.00
34586;BME280;20816;50.950;11.108;2023-01-25T08:44:36;100096.06;;;-0.21;100.00
34586;BME280;20816;50.950;11.108;2023-01-25T08:47:02;100098.66;;;-0.21;100.00
34586;BME280;20816;50.950;11.108;2023-01-25T08:49:29;100099.88;;;-0.13;100.00
34586;BME280;20816;50.950;11.108;2023-01-25T08:51:59;100096.34;;;-0.15;100.00
34586;BME280;20816;50.950;11.108;2023-01-25T08:54:26;100103.41;;;-0.11;100.00
34586;BME280;20816;50.950;11.108;2023-01-25T08:56:53;100102.03;;;-0.03;100.00
34586;BME280;20816;50.950;11.108;2023-01-25T08:59:20;100102.19;;;0.00;100.00
34586;BME280;20816;50.950;11.108;2023-01-25T09:01:46;100093.81;;;-0.14;100.00
34586;BME280;20816;50.950;11.108;2023-01-25T09:04:13;100090.13;;;-0.19;100.00
34586;BME280;20816;50.950;11.108;2023-01-25T09:06:40;100088.19;;;-0.24;100.00
34586;BME280;20816;50.950;11.108;2023-01-25T09:09:07;100089.19;;;-0.21;100.00
34586;BME280;20816;50.950;11.108;2023-01-25T09:11:34;100084.50;;;-0.10;100.00
34586;BME280;20816;50.950;11.108;2023-01-25T09:14:03;100089.94;;;-0.04;100.00
34586;BME280;20816;50.950;11.108;2023-01-25T09:16:31;100089.06;;;-0.05;100.00
34586;BME280;20816;50.950;11.108;2023-01-25T09:19:00;100088.31;;;-0.02;100.00
34586;BME280;20816;50.950;11.108;2023-01-25T09:21:28;100084.66;;;-0.07;100.00
34586;BME280;20816;50.950;11.108;2023-01-25T09:23:56;100076.06;;;-0.06;100.00
34586;BME280;20816;50.950;11.108;2023-01-25T09:26:37;100078.84;;;-0.02;100.00
34586;BME280;20816;50.950;11.108;2023-01-25T09:29:04;100084.34;;;0.06;100.00
34586;BME280;20816;50.950;11.108;2023-01-25T09:31:34;100079.47;;;0.12;100.00
34586;BME280;20816;50.950;11.108;2023-01-25T09:34:01;100075.50;;;0.20;100.00
34586;BME280;20816;50.950;11.108;2023-01-25T09:36:28;100073.13;;;0.25;100.00
34586;BME280;20816;50.950;11.108;2023-01-25T09:38:55;100074.56;;;0.18;100.00
34586;BME280;20816;50.950;11.108;2023-01-25T09:44:34;100069.66;;;0.24;100.00
34586;BME280;20816;50.950;11.108;2023-01-25T09:47:24;100071.34;;;0.24;100.00
34586;BME280;20816;50.950;11.108;2023-01-25T09:49:59;100068.69;;;0.22;100.00
34586;BME280;20816;50.950;11.108;2023-01-25T09:55:21;100059.44;;;0.27;100.00
34586;BME280;20816;50.950;11.108;2023-01-25T09:57:50;100052.06;;;0.37;100.00
34586;BME280;20816;50.950;11.108;2023-01-25T10:00:22;100048.81;;;0.41;100.00
34586;BME280;20816;50.950;11.108;2023-01-25T10:05:51;100045.25;;;0.39;100.00
34586;BME280;20816;50.950;11.108;2023-01-25T10:11:20;100050.78;;;0.48;100.00
34586;BME280;20816;50.950;11.108;2023-01-25T10:13:49;100042.16;;;0.47;100.00
34586;BME280;20816;50.950;11.108;2023-01-25T10:16:23;100039.72;;;0.50;100.00
34586;BME280;20816;50.950;11.108;2023-01-25T10:19:02;100044.13;;;0.53;100.00
34586;BME280;20816;50.950;11.108;2023-01-25T10:21:38;100038.56;;;0.44;100.00
34586;BME280;20816;50.950;11.108;2023-01-25T10:26:54;100023.53;;;0.56;100.00
34586;BME280;20816;50.950;11.108;2023-01-25T10:29:31;100025.19;;;0.54;100.00
34586;BME280;20816;50.950;11.108;2023-01-25T10:32:18;100024.63;;;0.61;100.00
34586;BME280;20816;50.950;11.108;2023-01-25T10:34:50;100021.09;;;0.59;100.00
34586;BME280;20816;50.950;11.108;2023-01-25T10:37:31;100008.03;;;0.56;100.00
34586;BME280;20816;50.950;11.108;2023-01-25T10:40:12;100010.06;;;0.42;100.00
34586;BME280;20816;50.950;11.108;2023-01-25T10:42:44;99994.88;;;0.50;100.00
34586;BME280;20816;50.950;11.108;2023-01-25T10:45:16;99993.31;;;0.55;100.00
34586;BME280;20816;50.950;11.108;2023-01-25T10:47:47;99993.31;;;0.55;100.00
34586;BME280;20816;50.950;11.108;2023-01-25T10:53:04;99984.41;;;0.69;100.00
34586;BME280;20816;50.950;11.108;2023-01-25T10:55:32;99973.50;;;0.76;100.00
34586;BME280;20816;50.950;11.108;2023-01-25T10:57:58;99978.09;;;0.83;100.00
34586;BME280;20816;50.950;11.108;2023-01-25T11:00:39;99971.91;;;0.80;100.00
34586;BME280;20816;50.950;11.108;2023-01-25T11:03:19;99973.84;;;0.86;100.00
34586;BME280;20816;50.950;11.108;2023-01-25T11:05:56;99969.56;;;0.86;100.00
34586;BME280;20816;50.950;11.108;2023-01-25T11:08:40;99970.19;;;0.80;100.00
34586;BME280;20816;50.950;11.108;2023-01-25T11:11:21;99954.81;;;0.83;100.00
34586;BME280;20816;50.950;11.108;2023-01-25T11:13:49;99956.66;;;0.88;100.00
34586;BME280;20816;50.950;11.108;2023-01-25T11:16:29;99944.56;;;0.87;100.00
34586;BME280;20816;50.950;11.108;2023-01-25T11:18:57;99943.88;;;0.91;100.00
34586;BME280;20816;50.950;11.108;2023-01-25T11:21:26;99925.78;;;0.92;100.00
34586;BME280;20816;50.950;11.108;2023-01-25T11:26:35;99921.16;;;0.83;100.00
34586;BME280;20816;50.950;11.108;2023-01-25T11:29:18;99914.44;;;0.89;100.00
34586;BME280;20816;50.950;11.108;2023-01-25T11:31:47;99900.56;;;0.87;100.00
34586;BME280;20816;50.950;11.108;2023-01-25T11:34:18;99899.13;;;0.95;100.00
34586;BME280;20816;50.950;11.108;2023-01-25T11:37:17;99892.44;;;1.00;100.00
34586;BME280;20816;50.950;11.108;2023-01-25T11:39:57;99893.84;;;0.92;100.00
34586;BME280;20816;50.950;11.108;2023-01-25T11:42:32;99885.16;;;0.90;100.00
34586;BME280;20816;50.950;11.108;2023-01-25T11:45:17;99880.31;;;0.99;100.00
34586;BME280;20816;50.950;11.108;2023-01-25T11:48:59;99878.09;;;0.86;100.00
34586;BME280;20816;50.950;11.108;2023-01-25T11:51:26;99868.81;;;0.91;100.00
34586;BME280;20816;50.950;11.108;2023-01-25T11:54:22;99862.91;;;0.95;100.00
34586;BME280;20816;50.950;11.108;2023-01-25T11:57:23;99862.66;;;0.89;100.00
34586;BME280;20816;50.950;11.108;2023-01-25T12:00:17;99856.59;;;0.88;100.00
34586;BME280;20816;50.950;11.108;2023-01-25T12:05:51;99846.34;;;0.90;100.00
34586;BME280;20816;50.950;11.108;2023-01-25T12:11:20;99839.31;;;0.87;100.00
34586;BME280;20816;50.950;11.108;2023-01-25T12:14:26;99831.59;;;0.89;100.00
34586;BME280;20816;50.950;11.108;2023-01-25T12:17:14;99828.09;;;0.87;100.00
34586;BME280;20816;50.950;11.108;2023-01-25T12:23:00;99800.16;;;0.78;100.00
34586;BME280;20816;50.950;11.108;2023-01-25T12:26:08;99801.66;;;0.71;100.00
34586;BME280;20816;50.950;11.108;2023-01-25T12:28:58;99800.22;;;0.79;100.00
34586;BME280;20816;50.950;11.108;2023-01-25T12:31:42;99806.97;;;0.74;100.00
34586;BME280;20816;50.950;11.108;2023-01-25T12:34:21;99802.75;;;0.78;100.00
34586;BME280;20816;50.950;11.108;2023-01-25T12:36:50;99801.66;;;0.71;100.00
34586;BME280;20816;50.950;11.108;2023-01-25T12:39:33;99803.78;;;0.81;100.00
34586;BME280;20816;50.950;11.108;2023-01-25T12:42:23;99799.66;;;0.64;100.00
34586;BME280;20816;50.950;11.108;2023-01-25T12:44:56;99796.28;;;0.65;100.00
34586;BME280;20816;50.950;11.108;2023-01-25T12:50:56;99787.00;;;0.72;100.00
34586;BME280;20816;50.950;11.108;2023-01-25T12:53:25;99772.63;;;0.80;100.00
34586;BME280;20816;50.950;11.108;2023-01-25T12:55:54;99773.59;;;0.82;100.00
34586;BME280;20816;50.950;11.108;2023-01-25T12:58:29;99772.81;;;0.84;100.00
34586;BME280;20816;50.950;11.108;2023-01-25T13:06:58;99763.56;;;0.67;100.00
34586;BME280;20816;50.950;11.108;2023-01-25T13:09:44;99770.41;;;0.65;100.00
34586;BME280;20816;50.950;11.108;2023-01-25T13:12:16;99768.00;;;0.71;100.00
34586;BME280;20816;50.950;11.108;2023-01-25T13:14:43;99748.59;;;0.59;100.00
34586;BME280;20816;50.950;11.108;2023-01-25T13:17:28;99754.66;;;0.59;100.00
34586;BME280;20816;50.950;11.108;2023-01-25T13:19:57;99747.81;;;0.61;100.00
34586;BME280;20816;50.950;11.108;2023-01-25T13:27:41;99719.19;;;0.33;100.00
34586;BME280;20816;50.950;11.108;2023-01-25T13:38:29;99700.59;;;0.43;100.00
34586;BME280;20816;50.950;11.108;2023-01-25T13:41:12;99698.72;;;0.39;100.00
34586;BME280;20816;50.950;11.108;2023-01-25T13:43:42;99695.09;;;0.34;100.00
34586;BME280;20816;50.950;11.108;2023-01-25T13:46:13;99699.50;;;0.36;100.00
34586;BME280;20816;50.950;11.108;2023-01-25T13:48:56;99690.34;;;0.46;100.00